Time;durP1;ratioP1;P1;durP2;ratioP2;P2;SDS_P1;SDS_P2;PMS_P1;PMS_P2;Temp;Humidity;BMP_temperature;BMP_pressure;BME280_temperature;BME280_humidity;BME280_pressure;Samples;Min_cycle;Max_cycle;Signal;HPM_P1;HPM_P2
2024/02/05 00:01:40;;;;;;;1.13;0.70;;;;;;;11.06;37.07;93169.88;5038064;28;20465;-79
2024/02/05 00:04:05;;;;;;;0.60;0.60;;;;;;;10.97;37.63;93154.72;4996845;28;20063;-80
2024/02/05 00:06:31;;;;;;;0.65;0.65;;;;;;;10.92;37.58;93159.19;5042161;28;20033;-79
2024/02/05 00:08:57;;;;;;;0.60;0.57;;;;;;;10.89;37.60;93165.00;5038545;28;20565;-80
2024/02/05 00:11:23;;;;;;;0.88;0.70;;;;;;;10.87;37.63;93159.22;5035005;28;20077;-81
2024/02/05 00:13:48;;;;;;;1.60;0.70;;;;;;;10.74;38.10;93148.31;5034529;28;20374;-80
2024/02/05 00:16:14;;;;;;;0.98;0.68;;;;;;;10.98;37.23;93165.97;5041570;28;20100;-80
2024/02/05 00:18:40;;;;;;;0.73;0.73;;;;;;;10.96;37.47;93157.59;5043658;28;20034;-79
2024/02/05 00:21:06;;;;;;;0.98;0.70;;;;;;;10.92;38.42;93161.81;5036857;28;20025;-80
2024/02/05 00:23:31;;;;;;;0.75;0.60;;;;;;;10.87;38.27;93151.38;5027288;28;20042;-81
2024/02/05 00:25:57;;;;;;;0.90;0.70;;;;;;;10.83;38.25;93151.94;5037628;28;20029;-78
2024/02/05 00:28:22;;;;;;;0.80;0.60;;;;;;;10.80;38.42;93144.59;5041863;28;20105;-80
2024/02/05 00:30:50;;;;;;;0.70;0.70;;;;;;;10.81;38.24;93148.78;5032831;28;20045;-80
2024/02/05 00:33:16;;;;;;;0.82;0.60;;;;;;;10.79;37.97;93147.50;5029822;28;20026;-80
2024/02/05 00:35:42;;;;;;;0.70;0.60;;;;;;;10.77;37.94;93145.16;5044116;28;20036;-79
2024/02/05 00:38:08;;;;;;;1.27;0.88;;;;;;;10.79;38.39;93140.44;5043824;28;20040;-79
2024/02/05 00:40:34;;;;;;;0.80;0.80;;;;;;;10.78;37.99;93143.31;5041523;28;20025;-80
2024/02/05 00:43:00;;;;;;;1.02;0.60;;;;;;;10.74;38.13;93137.84;5036902;28;20029;-80
2024/02/05 00:45:25;;;;;;;0.52;0.52;;;;;;;10.79;37.97;93139.66;5042183;28;20032;-78
2024/02/05 00:47:51;;;;;;;0.63;0.60;;;;;;;10.79;38.04;93134.41;5033923;28;20037;-79
2024/02/05 00:50:16;;;;;;;0.55;0.55;;;;;;;10.77;37.51;93131.28;5043582;28;20037;-80
2024/02/05 00:52:42;;;;;;;0.85;0.60;;;;;;;10.81;37.10;93137.53;5040014;28;20037;-78
2024/02/05 00:55:08;;;;;;;0.68;0.68;;;;;;;10.83;38.08;93130.19;5040955;28;20033;-81
2024/02/05 00:57:33;;;;;;;0.50;0.50;;;;;;;10.91;37.35;93129.59;5040777;28;20048;-79
2024/02/05 00:59:59;;;;;;;0.63;0.47;;;;;;;10.90;37.63;93120.19;5031500;28;20033;-80
2024/02/05 01:02:25;;;;;;;0.63;0.55;;;;;;;10.88;37.43;93124.91;5032869;28;20037;-80
2024/02/05 01:04:51;;;;;;;0.68;0.68;;;;;;;10.86;37.54;93129.66;5021168;28;20026;-78
2024/02/05 01:07:18;;;;;;;0.47;0.47;;;;;;;10.85;37.81;93122.81;5038569;28;20040;-80
2024/02/05 01:09:45;;;;;;;0.60;0.60;;;;;;;10.82;37.79;93129.41;5028109;28;20030;-78
2024/02/05 01:12:10;;;;;;;0.50;0.50;;;;;;;10.80;37.88;93126.25;5037263;28;20049;-79
2024/02/05 01:14:36;;;;;;;0.70;0.70;;;;;;;10.78;38.13;93124.97;5038895;28;20064;-79
2024/02/05 01:17:02;;;;;;;0.70;0.70;;;;;;;10.72;38.12;93121.63;5043042;28;20385;-80
2024/02/05 01:19:28;;;;;;;0.50;0.50;;;;;;;10.73;38.25;93125.00;5039845;28;20507;-79
2024/02/05 01:21:54;;;;;;;0.75;0.73;;;;;;;10.75;37.75;93120.28;5036635;28;20037;-78
2024/02/05 01:24:19;;;;;;;0.40;0.40;;;;;;;10.80;37.62;93121.03;5024501;28;20064;-79
2024/02/05 01:26:45;;;;;;;0.50;0.50;;;;;;;10.87;37.15;93122.56;5037231;28;20357;-77
2024/02/05 01:29:10;;;;;;;1.55;0.80;;;;;;;10.92;37.21;93120.72;5046317;28;20017;-81
2024/02/05 01:31:36;;;;;;;1.75;1.10;;;;;;;10.94;37.40;93116.00;5029181;28;20041;-78
2024/02/05 01:34:02;;;;;;;0.75;0.73;;;;;;;10.92;37.75;93115.47;5014412;28;20107;-80
2024/02/05 01:36:28;;;;;;;0.65;0.60;;;;;;;10.90;37.81;93109.72;5037665;28;20045;-79
2024/02/05 01:38:55;;;;;;;0.60;0.60;;;;;;;10.87;37.99;93114.72;5031056;28;20033;-80
2024/02/05 01:41:21;;;;;;;0.57;0.57;;;;;;;10.83;37.73;93106.63;5036275;28;20524;-80
2024/02/05 01:43:47;;;;;;;0.50;0.50;;;;;;;10.80;38.19;93110.53;5007669;28;20527;-80
2024/02/05 01:46:16;;;;;;;0.40;0.40;;;;;;;10.77;37.78;93105.09;5035169;28;20127;-79
2024/02/05 01:48:43;;;;;;;0.60;0.60;;;;;;;10.76;37.32;93112.16;5037333;28;20043;-78
2024/02/05 01:51:10;;;;;;;0.68;0.68;;;;;;;10.76;37.18;93111.38;5028641;28;20045;-79
2024/02/05 01:53:37;;;;;;;0.60;0.60;;;;;;;10.74;37.03;93098.56;5042867;28;20032;-80
2024/02/05 01:56:05;;;;;;;0.60;0.60;;;;;;;10.71;37.64;93100.94;5035211;28;20037;-80
2024/02/05 01:58:30;;;;;;;0.40;0.40;;;;;;;10.66;37.37;93091.28;5030074;28;20612;-80
2024/02/05 02:00:56;;;;;;;0.52;0.52;;;;;;;10.68;37.62;93096.25;5021592;28;20049;-79
2024/02/05 02:03:23;;;;;;;0.73;0.55;;;;;;;10.67;37.61;93089.44;5043229;28;20029;-79
2024/02/05 02:05:49;;;;;;;0.93;0.65;;;;;;;10.66;37.61;93086.03;5045286;28;20685;-80
2024/02/05 02:08:16;;;;;;;0.50;0.50;;;;;;;10.66;37.37;93091.28;5045655;28;20029;-80
2024/02/05 02:10:43;;;;;;;0.80;0.40;;;;;;;10.65;37.73;93081.06;5045180;28;20045;-79
2024/02/05 02:13:09;;;;;;;0.50;0.50;;;;;;;10.63;38.14;93083.97;5041651;28;20033;-78
2024/02/05 02:15:35;;;;;;;0.63;0.60;;;;;;;10.62;37.89;93075.31;5032541;28;20053;-80
2024/02/05 02:18:03;;;;;;;0.50;0.50;;;;;;;10.60;38.00;93068.78;5036585;28;20033;-78
2024/02/05 02:20:34;;;;;;;0.52;0.52;;;;;;;10.62;38.20;93061.44;5041485;28;20029;-79
2024/02/05 02:23:09;;;;;;;0.50;0.50;;;;;;;10.68;37.56;93060.38;5030527;28;20037;-80
2024/02/05 02:25:39;;;;;;;0.40;0.40;;;;;;;10.73;37.12;93057.69;5045591;28;20033;-79
2024/02/05 02:28:05;;;;;;;0.45;0.45;;;;;;;10.80;37.07;93052.16;5045877;28;20108;-78
2024/02/05 02:30:30;;;;;;;0.50;0.50;;;;;;;10.86;37.34;93045.84;5028874;28;20080;-79
2024/02/05 02:33:08;;;;;;;0.63;0.60;;;;;;;11.12;34.78;93043.00;5036787;28;20476;-78
2024/02/05 02:35:49;;;;;;;0.57;0.57;;;;;;;11.30;34.35;93044.16;5032674;28;20041;-80
2024/02/05 02:38:23;;;;;;;0.65;0.65;;;;;;;11.38;34.85;93041.72;5027793;28;20039;-78
2024/02/05 02:40:59;;;;;;;0.50;0.50;;;;;;;11.41;35.15;93041.16;5049548;28;20460;-79
2024/02/05 02:43:27;;;;;;;1.25;0.80;;;;;;;11.36;35.18;93032.56;5044592;28;20386;-80
2024/02/05 02:45:54;;;;;;;0.47;0.47;;;;;;;11.34;35.46;93035.47;5041377;28;20029;-80
2024/02/05 02:48:20;;;;;;;0.45;0.45;;;;;;;11.31;35.03;93043.88;5035495;28;20121;-80
2024/02/05 02:50:45;;;;;;;0.45;0.45;;;;;;;11.30;35.44;93042.31;5019869;28;20109;-80
2024/02/05 02:53:11;;;;;;;0.50;0.50;;;;;;;11.35;35.14;93039.66;5044914;28;20473;-78
2024/02/05 02:55:37;;;;;;;0.52;0.52;;;;;;;11.45;34.59;93036.16;5038486;28;20060;-80
2024/02/05 02:58:02;;;;;;;0.40;0.40;;;;;;;11.51;34.25;93029.81;5033956;28;20531;-79
2024/02/05 03:00:28;;;;;;;0.40;0.40;;;;;;;11.62;34.06;93035.72;5044433;28;20036;-78
2024/02/05 03:02:54;;;;;;;0.43;0.40;;;;;;;11.78;33.28;93034.50;5040431;28;20451;-80
2024/02/05 03:05:20;;;;;;;0.50;0.50;;;;;;;11.99;32.58;93026.41;5035693;28;20029;-79
2024/02/05 03:07:46;;;;;;;0.50;0.50;;;;;;;12.07;32.78;93029.19;5040812;28;20046;-80
2024/02/05 03:10:12;;;;;;;0.50;0.50;;;;;;;12.14;33.27;93033.34;5037813;28;20112;-80
2024/02/05 03:12:37;;;;;;;0.60;0.60;;;;;;;12.29;33.83;93039.16;5034181;28;20052;-80
2024/02/05 03:15:03;;;;;;;0.47;0.47;;;;;;;12.20;34.08;93046.09;5033366;28;20045;-78
2024/02/05 03:17:29;;;;;;;0.60;0.60;;;;;;;11.94;34.66;93043.00;5044826;28;20030;-78
2024/02/05 03:19:54;;;;;;;0.60;0.60;;;;;;;11.70;35.32;93042.97;5031045;28;20041;-79
2024/02/05 03:22:20;;;;;;;0.60;0.60;;;;;;;11.46;36.05;93041.13;5035762;28;20044;-80
2024/02/05 03:24:46;;;;;;;0.85;0.70;;;;;;;11.24;36.91;93043.44;5042300;28;20474;-80
2024/02/05 03:27:11;;;;;;;0.50;0.50;;;;;;;11.09;36.83;93035.69;5042284;28;20091;-80
2024/02/05 03:29:37;;;;;;;0.45;0.45;;;;;;;10.93;37.21;93033.19;5034530;28;20477;-79
2024/02/05 03:32:03;;;;;;;0.70;0.65;;;;;;;10.70;38.08;93041.78;5040462;28;20501;-80
2024/02/05 03:34:29;;;;;;;1.38;0.65;;;;;;;10.59;38.55;93044.44;5031562;28;20025;-80
2024/02/05 03:36:55;;;;;;;0.40;0.40;;;;;;;10.50;37.77;93032.22;5044766;28;20508;-79
2024/02/05 03:39:21;;;;;;;0.63;0.60;;;;;;;10.39;38.37;93037.50;5045274;28;20025;-80
2024/02/05 03:41:46;;;;;;;0.50;0.50;;;;;;;10.33;38.37;93033.34;5040700;28;20049;-80
2024/02/05 03:44:12;;;;;;;0.60;0.60;;;;;;;10.32;37.88;93036.25;5042692;28;20084;-80
2024/02/05 03:46:38;;;;;;;0.68;0.60;;;;;;;10.30;37.94;93033.13;5034288;28;20038;-80
2024/02/05 03:49:03;;;;;;;0.70;0.70;;;;;;;10.24;38.54;93031.53;5038686;28;20123;-79
2024/02/05 03:51:29;;;;;;;0.60;0.60;;;;;;;10.17;38.84;93035.22;5028863;28;20045;-78
2024/02/05 03:53:55;;;;;;;0.77;0.70;;;;;;;10.08;39.72;93036.06;5038785;28;20037;-79
2024/02/05 03:56:21;;;;;;;0.60;0.60;;;;;;;9.97;39.72;93030.09;5026918;28;20529;-79
2024/02/05 03:58:48;;;;;;;0.63;0.60;;;;;;;9.90;39.16;93034.84;5037141;28;20032;-79
2024/02/05 04:01:14;;;;;;;0.60;0.60;;;;;;;9.88;39.43;93032.47;5033423;28;20044;-77
2024/02/05 04:03:39;;;;;;;0.60;0.60;;;;;;;9.87;39.45;93043.22;5035498;28;20103;-79
2024/02/05 04:06:06;;;;;;;0.93;0.68;;;;;;;9.80;40.04;93031.22;5044312;28;20083;-80
2024/02/05 04:08:32;;;;;;;2.40;0.80;;;;;;;9.75;39.77;93033.84;5037128;28;20025;-80
2024/02/05 04:10:57;;;;;;;0.55;0.55;;;;;;;9.72;40.49;93030.97;5035232;28;20060;-79
2024/02/05 04:13:23;;;;;;;0.73;0.70;;;;;;;9.69;40.67;93032.31;5037594;28;20062;-78
2024/02/05 04:15:48;;;;;;;0.60;0.55;;;;;;;9.65;40.75;93030.50;5032638;28;20539;-80
2024/02/05 04:18:14;;;;;;;0.50;0.50;;;;;;;9.58;40.92;93025.53;5021749;28;20030;-80
2024/02/05 04:20:39;;;;;;;0.60;0.60;;;;;;;9.60;40.82;93033.91;5036349;28;20524;-80
2024/02/05 04:23:05;;;;;;;0.68;0.68;;;;;;;9.56;41.57;93025.03;5044355;28;20075;-79
2024/02/05 04:25:31;;;;;;;0.88;0.60;;;;;;;9.49;41.10;93024.53;5031555;28;20084;-78
2024/02/05 04:27:57;;;;;;;0.50;0.50;;;;;;;9.45;40.74;93028.72;5033501;28;20029;-79
2024/02/05 04:30:28;;;;;;;0.60;0.60;;;;;;;9.41;40.95;93028.44;5041320;28;20044;-80
2024/02/05 04:32:58;;;;;;;0.50;0.50;;;;;;;9.34;41.10;93012.28;5026787;28;20083;-79
2024/02/05 04:35:24;;;;;;;0.60;0.60;;;;;;;9.35;40.33;93025.06;5035848;28;20029;-79
2024/02/05 04:37:50;;;;;;;1.02;0.60;;;;;;;9.36;40.99;93018.78;5026149;28;20029;-78
2024/02/05 04:40:15;;;;;;;0.50;0.50;;;;;;;9.28;41.54;93008.91;5032651;28;20029;-80
2024/02/05 04:42:41;;;;;;;0.50;0.50;;;;;;;9.21;41.61;93025.88;5040108;28;20018;-79
2024/02/05 04:45:08;;;;;;;0.88;0.60;;;;;;;9.16;41.09;93021.44;5027681;28;20105;-80
2024/02/05 04:47:33;;;;;;;0.93;0.75;;;;;;;9.16;40.82;93005.78;5040120;28;20064;-79
2024/02/05 04:50:00;;;;;;;0.60;0.60;;;;;;;9.14;40.79;92998.22;5025341;28;20091;-78
2024/02/05 04:52:25;;;;;;;0.68;0.60;;;;;;;9.16;40.59;93005.78;5032975;28;20037;-79
2024/02/05 04:54:51;;;;;;;0.50;0.50;;;;;;;9.14;40.42;93002.63;5041437;28;20044;-78
2024/02/05 04:57:16;;;;;;;0.63;0.63;;;;;;;9.10;40.06;92996.41;5020741;28;20655;-80
2024/02/05 04:59:42;;;;;;;0.77;0.45;;;;;;;9.09;40.51;93000.81;5036923;28;20208;-79
2024/02/05 05:02:07;;;;;;;0.70;0.65;;;;;;;9.15;39.44;93001.59;5024381;28;20091;-79
2024/02/05 05:04:34;;;;;;;0.70;0.70;;;;;;;9.24;38.83;92989.56;5035175;28;20068;-79
2024/02/05 05:07:00;;;;;;;0.52;0.50;;;;;;;9.32;39.22;92991.66;5023946;28;20033;-77
2024/02/05 05:09:25;;;;;;;0.65;0.63;;;;;;;9.30;38.84;92993.75;5040039;28;20583;-79
2024/02/05 05:11:51;;;;;;;0.50;0.50;;;;;;;9.31;39.18;92997.91;5034875;28;20522;-77
2024/02/05 05:14:16;;;;;;;0.50;0.50;;;;;;;9.27;38.95;92996.88;5033672;28;20037;-79
2024/02/05 05:16:42;;;;;;;2.40;0.50;;;;;;;9.26;38.67;92994.53;5025771;28;20029;-77
2024/02/05 05:19:08;;;;;;;0.40;0.40;;;;;;;9.26;38.96;92999.75;5043273;28;20049;-80
2024/02/05 05:21:33;;;;;;;0.65;0.57;;;;;;;9.24;38.65;92994.03;5039521;28;20068;-79
2024/02/05 05:23:59;;;;;;;0.45;0.45;;;;;;;9.21;38.24;92995.34;5026488;28;20517;-79
2024/02/05 05:26:24;;;;;;;0.50;0.50;;;;;;;9.20;38.34;92995.59;5027543;28;20440;-80
2024/02/05 05:28:51;;;;;;;0.60;0.60;;;;;;;9.14;37.97;92995.59;5043154;28;20037;-77
2024/02/05 05:31:16;;;;;;;0.70;0.70;;;;;;;9.10;37.95;92991.19;5027346;28;20026;-77
2024/02/05 05:33:44;;;;;;;1.27;0.70;;;;;;;9.08;37.80;92995.88;5048749;28;20139;-79
2024/02/05 05:36:09;;;;;;;0.50;0.50;;;;;;;9.07;38.55;92991.69;5046029;28;20013;-77
2024/02/05 05:38:35;;;;;;;0.55;0.55;;;;;;;9.06;38.87;92990.13;5040412;28;20079;-77
2024/02/05 05:41:00;;;;;;;0.95;0.70;;;;;;;9.04;39.08;92992.22;5041093;28;20044;-79
2024/02/05 05:43:26;;;;;;;0.60;0.60;;;;;;;9.00;39.36;92996.41;5035607;28;20312;-80
2024/02/05 05:45:52;;;;;;;0.63;0.63;;;;;;;8.95;38.64;92992.75;5034453;28;20031;-80
2024/02/05 05:48:18;;;;;;;0.73;0.68;;;;;;;8.93;39.41;92992.22;5040348;28;20049;-79
2024/02/05 05:50:45;;;;;;;2.78;0.70;;;;;;;8.88;39.09;92994.84;5017784;28;20030;-78
2024/02/05 05:53:10;;;;;;;0.90;0.70;;;;;;;8.83;39.22;92996.69;4978770;28;21018;-82
2024/02/05 05:55:36;;;;;;;0.82;0.60;;;;;;;8.80;38.51;92986.75;5029840;28;20041;-81
2024/02/05 05:58:02;;;;;;;0.60;0.60;;;;;;;8.80;38.07;92995.38;5026760;28;20030;-81
2024/02/05 06:00:27;;;;;;;0.50;0.50;;;;;;;8.80;37.94;92997.97;5028371;28;20033;-81
2024/02/05 06:02:53;;;;;;;0.68;0.68;;;;;;;8.79;37.47;92995.66;5029059;28;20500;-82
2024/02/05 06:05:18;;;;;;;1.00;0.63;;;;;;;8.83;37.47;92991.47;5037550;28;20030;-83
2024/02/05 06:07:44;;;;;;;0.60;0.60;;;;;;;8.83;37.82;92987.03;5034285;28;20034;-80
2024/02/05 06:10:10;;;;;;;0.57;0.57;;;;;;;8.81;37.96;92991.72;5023600;28;20215;-82
2024/02/05 06:12:36;;;;;;;0.55;0.50;;;;;;;8.85;37.96;92997.19;5022971;28;20045;-80
2024/02/05 06:15:01;;;;;;;1.02;0.70;;;;;;;8.83;38.08;92994.84;5033122;28;20402;-81
2024/02/05 06:17:27;;;;;;;0.68;0.68;;;;;;;8.81;37.78;92994.34;5039200;28;20059;-80
2024/02/05 06:19:53;;;;;;;0.70;0.60;;;;;;;8.75;38.23;92996.16;5018353;28;20065;-79
2024/02/05 06:22:18;;;;;;;0.82;0.70;;;;;;;8.76;38.06;92999.56;5010220;28;20028;-81
2024/02/05 06:24:44;;;;;;;0.60;0.60;;;;;;;8.77;37.95;92993.28;5028913;28;20736;-80
2024/02/05 06:27:10;;;;;;;0.75;0.70;;;;;;;8.79;38.14;92990.44;5022953;28;20037;-80
2024/02/05 06:29:36;;;;;;;0.50;0.50;;;;;;;8.79;38.40;92987.81;5025057;28;20087;-80
2024/02/05 06:32:01;;;;;;;0.77;0.70;;;;;;;8.80;38.28;92995.38;5029355;28;20053;-80
2024/02/05 06:34:27;;;;;;;0.60;0.60;;;;;;;8.80;38.36;92997.97;5027759;28;20056;-79
2024/02/05 06:36:53;;;;;;;0.80;0.57;;;;;;;8.86;37.56;92996.94;5029106;28;20037;-80
2024/02/05 06:39:18;;;;;;;0.57;0.57;;;;;;;8.92;37.56;92988.06;5027090;28;20045;-80
2024/02/05 06:41:44;;;;;;;0.70;0.65;;;;;;;8.99;37.42;92987.03;5033337;28;20126;-82
2024/02/05 06:44:09;;;;;;;1.00;0.50;;;;;;;9.03;37.86;92983.63;5041953;28;20029;-81
2024/02/05 06:46:35;;;;;;;0.70;0.60;;;;;;;9.11;37.89;92987.50;5030381;28;20044;-81
2024/02/05 06:49:01;;;;;;;0.70;0.57;;;;;;;9.16;38.14;92990.91;5037504;28;20030;-80
2024/02/05 06:51:26;;;;;;;2.17;0.60;;;;;;;9.21;38.33;92990.09;5035253;28;20861;-80
2024/02/05 06:53:52;;;;;;;0.63;0.63;;;;;;;9.43;36.03;92986.38;5036615;28;20048;-81
2024/02/05 06:56:18;;;;;;;3.38;0.60;;;;;;;9.57;35.44;92993.41;5025486;28;20033;-81
2024/02/05 06:58:43;;;;;;;0.63;0.60;;;;;;;10.08;35.03;92995.00;5015035;28;20045;-81
2024/02/05 07:01:10;;;;;;;1.08;0.50;;;;;;;11.24;34.31;92991.03;5027934;28;20440;-82
2024/02/05 07:03:36;;;;;;;1.23;0.90;;;;;;;12.39;32.79;92995.47;5020630;28;20033;-82
2024/02/05 07:06:01;;;;;;;1.17;0.68;;;;;;;13.49;30.98;92990.53;5032249;28;20405;-82
2024/02/05 07:08:28;;;;;;;0.52;0.52;;;;;;;14.48;29.60;93003.31;5032451;28;20049;-82
2024/02/05 07:10:53;;;;;;;0.60;0.60;;;;;;;15.30;29.06;93007.47;5034530;28;20053;-83
2024/02/05 07:13:19;;;;;;;0.85;0.70;;;;;;;16.12;28.88;93009.84;5029666;28;20085;-83
2024/02/05 07:15:44;;;;;;;0.85;0.80;;;;;;;16.82;28.80;93016.78;5024229;28;20038;-83
2024/02/05 07:18:10;;;;;;;0.60;0.60;;;;;;;17.43;27.66;93013.28;5022565;28;20033;-82
2024/02/05 07:20:36;;;;;;;1.83;0.80;;;;;;;18.21;27.26;93020.16;5031474;28;20040;-82
2024/02/05 07:23:01;;;;;;;0.40;0.40;;;;;;;18.90;26.24;93014.44;5043685;28;20492;-80
2024/02/05 07:25:27;;;;;;;0.80;0.70;;;;;;;19.61;24.53;93025.16;5034298;28;20414;-82
2024/02/05 07:27:52;;;;;;;1.35;0.80;;;;;;;20.09;24.72;93026.38;5027545;28;20298;-82
2024/02/05 07:30:19;;;;;;;0.98;0.70;;;;;;;20.24;24.35;93023.06;5030120;28;20374;-82
2024/02/05 07:32:44;;;;;;;1.05;0.68;;;;;;;20.74;23.70;93026.47;5035274;28;20424;-82
2024/02/05 07:35:10;;;;;;;1.58;0.85;;;;;;;20.71;23.93;93024.44;5024923;28;20042;-81
2024/02/05 07:37:37;;;;;;;2.78;0.80;;;;;;;21.11;23.19;93035.09;5024007;28;20036;-83
2024/02/05 07:40:03;;;;;;;4.53;0.77;;;;;;;21.25;23.90;93029.38;5030394;28;20128;-83
2024/02/05 07:42:29;;;;;;;1.27;0.80;;;;;;;21.47;23.31;93024.66;5021722;28;20032;-82
2024/02/05 07:44:55;;;;;;;1.30;0.60;;;;;;;22.38;22.17;93035.31;5022142;28;20132;-83
2024/02/05 07:47:20;;;;;;;0.60;0.60;;;;;;;22.66;22.39;93027.16;5025046;28;20069;-82
2024/02/05 07:49:46;;;;;;;1.73;0.85;;;;;;;23.33;21.34;93030.78;5015202;28;20085;-80
2024/02/05 07:52:14;;;;;;;1.33;0.70;;;;;;;24.12;21.18;93024.97;4998944;28;20071;-83
2024/02/05 07:54:39;;;;;;;1.25;0.85;;;;;;;24.05;20.54;93025.63;5026415;28;20045;-82
2024/02/05 07:57:05;;;;;;;0.65;0.65;;;;;;;23.79;19.94;93031.69;5044728;28;20029;-81
2024/02/05 07:59:31;;;;;;;0.70;0.70;;;;;;;24.14;20.51;93029.94;5029590;28;20030;-80
2024/02/05 08:01:58;;;;;;;0.77;0.68;;;;;;;25.29;19.78;93035.06;5026357;28;20026;-80
2024/02/05 08:04:23;;;;;;;1.48;0.85;;;;;;;25.25;19.17;93028.88;5036641;28;20041;-81
2024/02/05 08:06:49;;;;;;;1.00;0.90;;;;;;;25.99;19.28;93030.06;5036660;28;20037;-82
2024/02/05 08:09:15;;;;;;;1.10;1.00;;;;;;;26.60;18.95;93041.31;5016451;28;20114;-82
2024/02/05 08:11:41;;;;;;;1.80;1.00;;;;;;;27.47;18.37;93029.84;5006546;28;20133;-82
2024/02/05 08:14:10;;;;;;;1.20;0.90;;;;;;;27.09;17.62;93038.13;5027700;28;20091;-80
2024/02/05 08:16:37;;;;;;;0.93;0.88;;;;;;;27.24;17.01;93049.75;5008443;28;20378;-82
2024/02/05 08:19:04;;;;;;;0.77;0.75;;;;;;;28.17;16.63;93041.19;5020950;28;20164;-82
2024/02/05 08:21:29;;;;;;;1.17;1.05;;;;;;;26.93;16.65;93041.13;5022819;28;20037;-81
2024/02/05 08:23:55;;;;;;;1.02;0.90;;;;;;;26.14;17.89;93045.13;5022397;28;20044;-81
2024/02/05 08:26:21;;;;;;;1.00;0.90;;;;;;;26.65;18.01;93036.34;5027028;28;20025;-82
2024/02/05 08:28:47;;;;;;;1.48;0.98;;;;;;;27.51;17.62;93036.00;5030819;28;20430;-82
2024/02/05 08:31:13;;;;;;;1.98;0.90;;;;;;;27.64;17.52;93044.50;5010397;28;20033;-80
2024/02/05 08:33:39;;;;;;;1.67;0.93;;;;;;;26.95;18.25;93044.22;5030771;28;20262;-81
2024/02/05 08:36:05;;;;;;;0.82;0.80;;;;;;;27.05;18.45;93045.41;5029671;28;20033;-82
2024/02/05 08:38:30;;;;;;;1.40;0.95;;;;;;;25.91;19.77;93043.38;5037366;28;20287;-80
2024/02/05 08:40:56;;;;;;;1.70;0.90;;;;;;;25.49;19.22;93038.34;5039079;28;20030;-82
2024/02/05 08:43:22;;;;;;;2.00;1.00;;;;;;;25.57;19.17;93041.88;5022681;28;20033;-82
2024/02/05 08:45:48;;;;;;;1.13;0.90;;;;;;;25.87;18.43;93047.97;5038085;28;20488;-81
2024/02/05 08:48:14;;;;;;;0.60;0.60;;;;;;;25.03;19.25;93036.63;5029004;28;20048;-82
2024/02/05 08:50:39;;;;;;;1.88;0.90;;;;;;;24.06;19.41;93031.75;5030236;28;20022;-80
2024/02/05 08:53:06;;;;;;;1.65;0.88;;;;;;;24.99;19.72;93022.41;5042806;28;20460;-81
2024/02/05 08:55:32;;;;;;;0.95;0.82;;;;;;;24.66;19.58;93037.28;5037142;28;20057;-80
2024/02/05 08:57:59;;;;;;;1.00;0.90;;;;;;;23.31;20.09;93027.72;5037624;28;20101;-81
2024/02/05 09:00:24;;;;;;;1.25;0.90;;;;;;;22.34;21.22;93034.44;5028533;28;20558;-81
2024/02/05 09:02:50;;;;;;;0.85;0.77;;;;;;;23.21;22.09;93021.81;5036510;28;20037;-81
2024/02/05 09:05:17;;;;;;;1.15;0.70;;;;;;;23.21;21.85;93026.38;5037640;28;20588;-82
2024/02/05 09:07:42;;;;;;;4.22;1.10;;;;;;;22.92;22.36;93031.13;5035689;28;20128;-80
2024/02/05 09:10:09;;;;;;;1.45;0.93;;;;;;;23.37;22.20;93029.78;5036636;28;20109;-79
2024/02/05 09:12:35;;;;;;;1.85;1.10;;;;;;;22.63;22.35;93022.53;5037731;28;20099;-80
2024/02/05 09:15:03;;;;;;;3.55;0.82;;;;;;;23.82;20.84;93032.88;5035885;28;20056;-80
2024/02/05 09:17:30;;;;;;;1.67;1.05;;;;;;;24.01;21.55;93040.06;5029428;28;20033;-80
2024/02/05 09:19:55;;;;;;;3.55;1.30;;;;;;;22.90;22.74;93032.59;5035195;28;20045;-81
2024/02/05 09:22:21;;;;;;;2.63;1.33;;;;;;;22.48;23.08;93038.56;5031907;28;20095;-81
2024/02/05 09:24:47;;;;;;;1.65;1.23;;;;;;;22.20;22.93;93039.41;5029082;28;20113;-81
2024/02/05 09:27:13;;;;;;;1.85;0.90;;;;;;;22.27;21.63;93044.16;5035599;28;20040;-81
2024/02/05 09:29:38;;;;;;;1.02;0.80;;;;;;;21.38;22.21;93041.53;5024194;28;20024;-81
2024/02/05 09:32:07;;;;;;;2.47;1.10;;;;;;;21.17;22.88;93040.97;5040686;28;20031;-81
2024/02/05 09:34:33;;;;;;;1.48;0.90;;;;;;;20.89;22.71;93055.00;5028449;28;20037;-81
2024/02/05 09:37:00;;;;;;;1.25;0.80;;;;;;;20.68;23.61;93054.41;5033147;28;20505;-81
2024/02/05 09:39:26;;;;;;;1.40;0.85;;;;;;;20.93;23.31;93042.56;5037127;28;20033;-81
2024/02/05 09:41:53;;;;;;;1.30;0.90;;;;;;;21.09;23.40;93047.97;5028778;28;20022;-81
2024/02/05 09:44:19;;;;;;;1.00;0.80;;;;;;;20.17;24.80;93058.16;5038357;28;20025;-80
2024/02/05 09:46:52;;;;;;;3.17;1.08;;;;;;;20.08;24.04;93054.03;5036403;28;20041;-80
2024/02/05 09:49:18;;;;;;;1.05;0.65;;;;;;;19.71;23.87;93060.06;5037522;28;20337;-80
2024/02/05 09:51:44;;;;;;;1.55;0.90;;;;;;;19.65;25.65;93056.03;5036593;28;20075;-80
2024/02/05 09:54:10;;;;;;;1.10;0.77;;;;;;;20.12;25.79;93053.03;5037290;28;20516;-80
2024/02/05 09:56:36;;;;;;;2.10;1.30;;;;;;;19.78;27.92;93054.22;5034153;28;20025;-80
2024/02/05 09:59:02;;;;;;;3.55;1.40;;;;;;;19.71;27.35;93057.41;5034443;28;20036;-80
2024/02/05 10:01:28;;;;;;;2.50;1.10;;;;;;;19.69;27.43;93058.84;5036161;28;20398;-80
2024/02/05 10:03:57;;;;;;;2.15;1.20;;;;;;;19.23;29.24;93063.31;5037726;28;20041;-81
2024/02/05 10:06:30;;;;;;;2.65;1.08;;;;;;;19.37;27.46;93055.09;5037940;28;20095;-80
2024/02/05 10:09:04;;;;;;;2.58;1.40;;;;;;;19.47;28.41;93057.31;5023483;28;20443;-79
2024/02/05 10:11:31;;;;;;;3.35;1.30;;;;;;;19.26;29.40;93057.38;5026469;28;20057;-80
2024/02/05 10:13:57;;;;;;;3.08;1.50;;;;;;;18.83;30.55;93059.28;5024566;28;20059;-82
2024/02/05 10:16:23;;;;;;;3.80;1.40;;;;;;;18.96;29.86;93057.47;5032332;28;20101;-80
2024/02/05 10:18:49;;;;;;;3.65;1.45;;;;;;;18.72;30.85;93060.72;5018119;28;20031;-81
2024/02/05 10:21:16;;;;;;;2.33;1.33;;;;;;;18.35;30.59;93063.13;5025193;28;20020;-82
2024/02/05 10:23:43;;;;;;;1.85;1.00;;;;;;;18.28;28.60;93068.13;5036844;28;20026;-80
2024/02/05 10:26:09;;;;;;;2.10;1.20;;;;;;;18.92;29.21;93065.28;5020608;28;20080;-81
2024/02/05 10:28:37;;;;;;;3.25;1.20;;;;;;;19.26;28.66;93060.03;5031522;28;20025;-80
2024/02/05 10:31:05;;;;;;;5.60;1.40;;;;;;;19.44;29.04;93056.09;5018208;28;20092;-79
2024/02/05 10:33:30;;;;;;;2.45;1.38;;;;;;;19.29;29.29;93062.78;5031006;28;20025;-78
2024/02/05 10:35:56;;;;;;;3.40;1.50;;;;;;;19.12;29.67;93063.72;5032692;28;20042;-80
2024/02/05 10:38:25;;;;;;;1.88;1.15;;;;;;;19.07;27.37;93055.16;5022334;28;20030;-80
2024/02/05 10:40:51;;;;;;;2.33;1.30;;;;;;;19.09;28.77;93052.97;5025003;28;20088;-80
2024/02/05 10:43:17;;;;;;;1.95;1.30;;;;;;;18.87;29.43;93057.53;5026101;28;20188;-80
2024/02/05 10:45:43;;;;;;;2.50;1.48;;;;;;;18.70;29.56;93061.03;5033945;28;20536;-80
2024/02/05 10:48:09;;;;;;;2.45;1.40;;;;;;;18.48;29.86;93056.78;5027343;28;20029;-80
2024/02/05 10:50:34;;;;;;;2.85;1.42;;;;;;;18.77;30.98;93057.91;5041462;28;20044;-80
2024/02/05 10:53:02;;;;;;;1.65;1.13;;;;;;;18.34;29.34;93050.19;5029138;28;20072;-81
2024/02/05 10:55:28;;;;;;;6.10;1.20;;;;;;;18.57;28.88;93048.03;5027202;28;20057;-81
2024/02/05 10:57:55;;;;;;;2.45;1.30;;;;;;;18.69;28.65;93045.47;5025374;28;20038;-80
2024/02/05 11:00:21;;;;;;;2.05;1.23;;;;;;;18.67;28.23;93042.34;5035506;28;20051;-79
2024/02/05 11:03:09;;;;;;;4.07;1.45;;;;;;;18.93;29.31;93039.53;5021278;28;20401;-82
2024/02/05 11:05:35;;;;;;;1.38;1.10;;;;;;;18.78;27.26;93032.94;5017268;28;20477;-80
2024/02/05 11:08:23;;;;;;;1.52;0.93;;;;;;;18.93;28.77;93024.38;5032686;28;20215;-81
2024/02/05 11:10:52;;;;;;;3.17;1.50;;;;;;;18.68;29.00;93028.75;5029811;28;20377;-81
2024/02/05 11:13:34;;;;;;;1.70;1.02;;;;;;;18.28;27.54;93025.72;5028085;28;20072;-80
2024/02/05 11:16:02;;;;;;;3.15;1.20;;;;;;;18.64;29.37;93029.72;5031072;28;20029;-81
2024/02/05 11:18:34;;;;;;;5.15;1.60;;;;;;;18.62;30.13;93023.97;5032802;28;20152;-81
2024/02/05 11:21:03;;;;;;;3.00;1.65;;;;;;;19.02;30.55;93020.88;5035209;28;20084;-81
2024/02/05 11:23:32;;;;;;;3.63;1.60;;;;;;;18.86;30.22;93013.53;5036242;28;20056;-80
2024/02/05 11:25:58;;;;;;;3.05;1.60;;;;;;;18.27;31.45;93018.91;5018502;28;20034;-80
2024/02/05 11:28:24;;;;;;;2.35;1.40;;;;;;;18.25;31.11;93005.97;5034485;28;20044;-80
2024/02/05 11:30:49;;;;;;;4.60;1.55;;;;;;;17.90;32.25;93013.31;5026329;28;20045;-80
2024/02/05 11:33:29;;;;;;;3.00;1.60;;;;;;;18.19;31.85;93004.59;5019201;28;20034;-81